sensor_id;sensor_type;location;lat;lon;timestamp;P1;durP1;ratioP1;P2;durP2;ratioP2
21114;SDS011;10715;48.546;9.896;2024-03-23T00:52:26;4.00;;;2.30;;
21114;SDS011;10715;48.546;9.896;2024-03-23T00:54:52;3.10;;;2.80;;
21114;SDS011;10715;48.546;9.896;2024-03-23T00:57:18;2.97;;;2.23;;
21114;SDS011;10715;48.546;9.896;2024-03-23T00:59:44;4.13;;;3.70;;
21114;SDS011;10715;48.546;9.896;2024-03-23T01:02:09;1.93;;;1.73;;
21114;SDS011;10715;48.546;9.896;2024-03-23T01:04:35;2.90;;;2.43;;
21114;SDS011;10715;48.546;9.896;2024-03-23T01:07:01;3.70;;;2.90;;
21114;SDS011;10715;48.546;9.896;2024-03-23T01:09:27;2.07;;;1.87;;
21114;SDS011;10715;48.546;9.896;2024-03-23T01:11:52;4.57;;;3.77;;
21114;SDS011;10715;48.546;9.896;2024-03-23T01:14:18;4.13;;;2.00;;
21114;SDS011;10715;48.546;9.896;2024-03-23T01:16:44;2.70;;;2.50;;
21114;SDS011;10715;48.546;9.896;2024-03-23T01:19:10;3.60;;;2.40;;
21114;SDS011;10715;48.546;9.896;2024-03-23T01:21:36;2.50;;;2.00;;
21114;SDS011;10715;48.546;9.896;2024-03-23T01:24:01;5.60;;;2.83;;
21114;SDS011;10715;48.546;9.896;2024-03-23T01:26:27;2.40;;;2.30;;
21114;SDS011;10715;48.546;9.896;2024-03-23T01:28:53;4.73;;;2.67;;
21114;SDS011;10715;48.546;9.896;2024-03-23T01:31:18;2.03;;;1.90;;
21114;SDS011;10715;48.546;9.896;2024-03-23T01:33:44;7.63;;;2.23;;
21114;SDS011;10715;48.546;9.896;2024-03-23T01:36:10;2.43;;;2.33;;
21114;SDS011;10715;48.546;9.896;2024-03-23T01:38:35;3.03;;;2.60;;
21114;SDS011;10715;48.546;9.896;2024-03-23T01:41:01;2.83;;;2.40;;
21114;SDS011;10715;48.546;9.896;2024-03-23T01:43:27;3.10;;;2.33;;
21114;SDS011;10715;48.546;9.896;2024-03-23T01:45:53;2.27;;;2.10;;
21114;SDS011;10715;48.546;9.896;2024-03-23T01:48:20;2.13;;;1.90;;
21114;SDS011;10715;48.546;9.896;2024-03-23T01:50:46;1.90;;;1.80;;
21114;SDS011;10715;48.546;9.896;2024-03-23T01:53:13;2.50;;;1.90;;
21114;SDS011;10715;48.546;9.896;2024-03-23T01:55:42;2.70;;;2.50;;
21114;SDS011;10715;48.546;9.896;2024-03-23T01:58:08;3.47;;;3.17;;
21114;SDS011;10715;48.546;9.896;2024-03-23T02:00:34;2.47;;;1.83;;
21114;SDS011;10715;48.546;9.896;2024-03-23T02:03:00;2.20;;;1.80;;
21114;SDS011;10715;48.546;9.896;2024-03-23T02:05:26;2.20;;;2.00;;
21114;SDS011;10715;48.546;9.896;2024-03-23T02:07:52;4.57;;;3.60;;
21114;SDS011;10715;48.546;9.896;2024-03-23T02:10:18;4.77;;;3.63;;
21114;SDS011;10715;48.546;9.896;2024-03-23T02:12:44;4.20;;;3.83;;
21114;SDS011;10715;48.546;9.896;2024-03-23T02:15:09;5.83;;;4.40;;
21114;SDS011;10715;48.546;9.896;2024-03-23T02:17:35;4.30;;;3.97;;
21114;SDS011;10715;48.546;9.896;2024-03-23T02:20:02;5.83;;;5.30;;
21114;SDS011;10715;48.546;9.896;2024-03-23T02:22:37;9.23;;;6.33;;
21114;SDS011;10715;48.546;9.896;2024-03-23T02:25:04;8.97;;;6.10;;
21114;SDS011;10715;48.546;9.896;2024-03-23T02:27:31;6.13;;;5.60;;
21114;SDS011;10715;48.546;9.896;2024-03-23T02:29:57;11.90;;;5.23;;
21114;SDS011;10715;48.546;9.896;2024-03-23T02:32:22;6.07;;;5.53;;
21114;SDS011;10715;48.546;9.896;2024-03-23T02:34:48;10.60;;;3.90;;
21114;SDS011;10715;48.546;9.896;2024-03-23T02:37:13;3.73;;;3.43;;
21114;SDS011;10715;48.546;9.896;2024-03-23T02:39:39;3.10;;;2.87;;
21114;SDS011;10715;48.546;9.896;2024-03-23T02:42:05;4.60;;;3.00;;
21114;SDS011;10715;48.546;9.896;2024-03-23T02:44:31;2.10;;;1.90;;
21114;SDS011;10715;48.546;9.896;2024-03-23T02:46:57;2.73;;;2.27;;
21114;SDS011;10715;48.546;9.896;2024-03-23T02:49:24;2.57;;;1.67;;
21114;SDS011;10715;48.546;9.896;2024-03-23T02:51:50;1.90;;;1.50;;
21114;SDS011;10715;48.546;9.896;2024-03-23T02:54:16;1.90;;;1.60;;
21114;SDS011;10715;48.546;9.896;2024-03-23T02:56:42;4.37;;;0.97;;
21114;SDS011;10715;48.546;9.896;2024-03-23T02:59:08;2.23;;;2.03;;
21114;SDS011;10715;48.546;9.896;2024-03-23T03:01:34;2.13;;;1.20;;
21114;SDS011;10715;48.546;9.896;2024-03-23T03:04:01;1.33;;;1.23;;
21114;SDS011;10715;48.546;9.896;2024-03-23T03:06:27;2.20;;;2.00;;
21114;SDS011;10715;48.546;9.896;2024-03-23T03:08:52;1.43;;;1.33;;
21114;SDS011;10715;48.546;9.896;2024-03-23T03:11:18;5.00;;;1.77;;
21114;SDS011;10715;48.546;9.896;2024-03-23T03:13:44;1.27;;;1.00;;
21114;SDS011;10715;48.546;9.896;2024-03-23T03:16:10;2.83;;;1.80;;
21114;SDS011;10715;48.546;9.896;2024-03-23T03:18:36;6.07;;;3.30;;
21114;SDS011;10715;48.546;9.896;2024-03-23T03:21:03;1.20;;;1.10;;
21114;SDS011;10715;48.546;9.896;2024-03-23T03:23:30;2.60;;;2.40;;
21114;SDS011;10715;48.546;9.896;2024-03-23T03:25:56;2.10;;;1.90;;
21114;SDS011;10715;48.546;9.896;2024-03-23T03:28:23;1.90;;;1.80;;
21114;SDS011;10715;48.546;9.896;2024-03-23T03:30:49;3.80;;;1.27;;
21114;SDS011;10715;48.546;9.896;2024-03-23T03:33:15;3.50;;;1.00;;
21114;SDS011;10715;48.546;9.896;2024-03-23T03:35:41;1.87;;;1.77;;
21114;SDS011;10715;48.546;9.896;2024-03-23T03:38:08;4.47;;;1.87;;
21114;SDS011;10715;48.546;9.896;2024-03-23T03:40:34;2.80;;;2.07;;
21114;SDS011;10715;48.546;9.896;2024-03-23T03:43:00;9.53;;;1.43;;
21114;SDS011;10715;48.546;9.896;2024-03-23T03:45:26;1.60;;;1.40;;
21114;SDS011;10715;48.546;9.896;2024-03-23T03:47:52;1.73;;;1.10;;
21114;SDS011;10715;48.546;9.896;2024-03-23T03:50:18;1.63;;;1.27;;
21114;SDS011;10715;48.546;9.896;2024-03-23T03:52:44;2.70;;;2.10;;
21114;SDS011;10715;48.546;9.896;2024-03-23T03:55:12;2.23;;;1.70;;
21114;SDS011;10715;48.546;9.896;2024-03-23T03:57:39;1.43;;;1.10;;
21114;SDS011;10715;48.546;9.896;2024-03-23T04:00:05;3.03;;;1.50;;
21114;SDS011;10715;48.546;9.896;2024-03-23T04:02:32;3.73;;;1.67;;
21114;SDS011;10715;48.546;9.896;2024-03-23T04:04:57;3.87;;;1.40;;
21114;SDS011;10715;48.546;9.896;2024-03-23T04:07:23;1.83;;;1.63;;
21114;SDS011;10715;48.546;9.896;2024-03-23T04:09:49;2.60;;;1.43;;
21114;SDS011;10715;48.546;9.896;2024-03-23T04:12:15;5.43;;;1.80;;
21114;SDS011;10715;48.546;9.896;2024-03-23T04:14:41;1.20;;;0.90;;
21114;SDS011;10715;48.546;9.896;2024-03-23T04:17:07;4.53;;;1.20;;
21114;SDS011;10715;48.546;9.896;2024-03-23T04:19:33;1.87;;;1.77;;
21114;SDS011;10715;48.546;9.896;2024-03-23T04:22:00;2.77;;;2.50;;
21114;SDS011;10715;48.546;9.896;2024-03-23T04:24:25;2.50;;;2.30;;
21114;SDS011;10715;48.546;9.896;2024-03-23T04:26:51;2.70;;;1.57;;
21114;SDS011;10715;48.546;9.896;2024-03-23T04:29:17;2.93;;;1.90;;
21114;SDS011;10715;48.546;9.896;2024-03-23T04:31:43;4.50;;;1.67;;
21114;SDS011;10715;48.546;9.896;2024-03-23T04:34:09;2.37;;;1.57;;
21114;SDS011;10715;48.546;9.896;2024-03-23T04:36:35;2.07;;;1.40;;
21114;SDS011;10715;48.546;9.896;2024-03-23T04:39:02;1.40;;;1.27;;
21114;SDS011;10715;48.546;9.896;2024-03-23T04:41:29;2.90;;;1.77;;
21114;SDS011;10715;48.546;9.896;2024-03-23T04:43:55;2.80;;;1.90;;
21114;SDS011;10715;48.546;9.896;2024-03-23T04:46:21;3.60;;;1.83;;
21114;SDS011;10715;48.546;9.896;2024-03-23T04:48:47;3.37;;;1.60;;
21114;SDS011;10715;48.546;9.896;2024-03-23T04:51:25;1.87;;;1.73;;
21114;SDS011;10715;48.546;9.896;2024-03-23T04:53:51;1.70;;;1.60;;
21114;SDS011;10715;48.546;9.896;2024-03-23T04:56:18;4.10;;;1.77;;
21114;SDS011;10715;48.546;9.896;2024-03-23T04:58:43;2.40;;;2.13;;
21114;SDS011;10715;48.546;9.896;2024-03-23T05:01:10;1.87;;;1.40;;
21114;SDS011;10715;48.546;9.896;2024-03-23T05:03:38;1.93;;;1.20;;
21114;SDS011;10715;48.546;9.896;2024-03-23T05:06:04;2.53;;;1.60;;
21114;SDS011;10715;48.546;9.896;2024-03-23T05:08:30;2.50;;;1.57;;
21114;SDS011;10715;48.546;9.896;2024-03-23T05:10:57;1.80;;;1.50;;
21114;SDS011;10715;48.546;9.896;2024-03-23T05:13:23;3.83;;;1.97;;
21114;SDS011;10715;48.546;9.896;2024-03-23T05:15:52;1.87;;;1.70;;
21114;SDS011;10715;48.546;9.896;2024-03-23T05:18:19;1.83;;;1.40;;
21114;SDS011;10715;48.546;9.896;2024-03-23T05:20:47;2.40;;;2.20;;
21114;SDS011;10715;48.546;9.896;2024-03-23T05:23:15;1.87;;;1.60;;
21114;SDS011;10715;48.546;9.896;2024-03-23T05:25:40;3.20;;;2.80;;
21114;SDS011;10715;48.546;9.896;2024-03-23T05:28:06;1.57;;;1.10;;
21114;SDS011;10715;48.546;9.896;2024-03-23T05:30:32;1.97;;;1.87;;
21114;SDS011;10715;48.546;9.896;2024-03-23T05:32:58;2.50;;;2.30;;
21114;SDS011;10715;48.546;9.896;2024-03-23T05:35:24;1.93;;;1.73;;
21114;SDS011;10715;48.546;9.896;2024-03-23T05:37:50;1.73;;;1.60;;
21114;SDS011;10715;48.546;9.896;2024-03-23T05:40:16;1.70;;;1.37;;
21114;SDS011;10715;48.546;9.896;2024-03-23T05:42:41;2.37;;;2.17;;
21114;SDS011;10715;48.546;9.896;2024-03-23T05:45:07;3.37;;;2.53;;
21114;SDS011;10715;48.546;9.896;2024-03-23T05:47:33;2.87;;;2.03;;
21114;SDS011;10715;48.546;9.896;2024-03-23T05:49:59;7.17;;;2.07;;
21114;SDS011;10715;48.546;9.896;2024-03-23T05:52:26;5.43;;;4.03;;
21114;SDS011;10715;48.546;9.896;2024-03-23T05:54:52;2.10;;;1.87;;
21114;SDS011;10715;48.546;9.896;2024-03-23T05:57:17;7.20;;;2.80;;
21114;SDS011;10715;48.546;9.896;2024-03-23T05:59:44;3.90;;;3.00;;
21114;SDS011;10715;48.546;9.896;2024-03-23T06:02:10;9.00;;;3.67;;
21114;SDS011;10715;48.546;9.896;2024-03-23T06:04:36;3.90;;;3.13;;
21114;SDS011;10715;48.546;9.896;2024-03-23T06:07:02;2.97;;;2.13;;
21114;SDS011;10715;48.546;9.896;2024-03-23T06:09:28;3.37;;;3.10;;
21114;SDS011;10715;48.546;9.896;2024-03-23T06:11:56;5.03;;;2.50;;
21114;SDS011;10715;48.546;9.896;2024-03-23T06:14:22;2.83;;;2.63;;
21114;SDS011;10715;48.546;9.896;2024-03-23T06:16:48;3.67;;;3.23;;
21114;SDS011;10715;48.546;9.896;2024-03-23T06:19:14;4.23;;;3.93;;
21114;SDS011;10715;48.546;9.896;2024-03-23T06:21:44;6.50;;;3.00;;
21114;SDS011;10715;48.546;9.896;2024-03-23T06:24:11;3.53;;;2.97;;
21114;SDS011;10715;48.546;9.896;2024-03-23T06:26:37;4.30;;;3.90;;
21114;SDS011;10715;48.546;9.896;2024-03-23T06:29:02;4.07;;;3.60;;
21114;SDS011;10715;48.546;9.896;2024-03-23T06:31:30;2.20;;;2.10;;
21114;SDS011;10715;48.546;9.896;2024-03-23T06:33:56;2.20;;;1.80;;
21114;SDS011;10715;48.546;9.896;2024-03-23T06:36:21;3.27;;;1.67;;
21114;SDS011;10715;48.546;9.896;2024-03-23T06:38:47;6.90;;;2.50;;
21114;SDS011;10715;48.546;9.896;2024-03-23T06:41:13;2.93;;;2.60;;
21114;SDS011;10715;48.546;9.896;2024-03-23T06:43:38;2.50;;;1.83;;
21114;SDS011;10715;48.546;9.896;2024-03-23T06:46:04;1.30;;;0.90;;
21114;SDS011;10715;48.546;9.896;2024-03-23T06:48:30;1.70;;;1.30;;
21114;SDS011;10715;48.546;9.896;2024-03-23T06:50:56;2.40;;;1.33;;
21114;SDS011;10715;48.546;9.896;2024-03-23T06:53:22;2.47;;;1.27;;
21114;SDS011;10715;48.546;9.896;2024-03-23T06:55:54;2.27;;;1.27;;
21114;SDS011;10715;48.546;9.896;2024-03-23T06:58:20;1.90;;;1.60;;
21114;SDS011;10715;48.546;9.896;2024-03-23T07:00:47;5.20;;;1.30;;
21114;SDS011;10715;48.546;9.896;2024-03-23T07:03:14;2.47;;;1.77;;
21114;SDS011;10715;48.546;9.896;2024-03-23T07:05:40;3.03;;;1.70;;
21114;SDS011;10715;48.546;9.896;2024-03-23T07:08:06;2.90;;;1.80;;
21114;SDS011;10715;48.546;9.896;2024-03-23T07:10:32;2.30;;;1.63;;
21114;SDS011;10715;48.546;9.896;2024-03-23T07:12:58;9.60;;;1.40;;
21114;SDS011;10715;48.546;9.896;2024-03-23T07:15:24;2.20;;;1.60;;
21114;SDS011;10715;48.546;9.896;2024-03-23T07:17:50;1.77;;;1.40;;
21114;SDS011;10715;48.546;9.896;2024-03-23T07:20:15;1.57;;;1.07;;
21114;SDS011;10715;48.546;9.896;2024-03-23T07:22:41;1.87;;;1.17;;
21114;SDS011;10715;48.546;9.896;2024-03-23T07:25:07;2.97;;;1.43;;
21114;SDS011;10715;48.546;9.896;2024-03-23T07:27:33;1.90;;;1.43;;
21114;SDS011;10715;48.546;9.896;2024-03-23T07:29:59;1.80;;;0.93;;
21114;SDS011;10715;48.546;9.896;2024-03-23T07:32:26;1.23;;;0.67;;
21114;SDS011;10715;48.546;9.896;2024-03-23T07:34:52;1.30;;;1.00;;
21114;SDS011;10715;48.546;9.896;2024-03-23T07:37:18;1.77;;;0.80;;
21114;SDS011;10715;48.546;9.896;2024-03-23T07:39:43;2.50;;;1.63;;
21114;SDS011;10715;48.546;9.896;2024-03-23T07:42:09;3.13;;;1.17;;
21114;SDS011;10715;48.546;9.896;2024-03-23T07:44:35;1.53;;;0.70;;
21114;SDS011;10715;48.546;9.896;2024-03-23T07:47:01;1.27;;;1.17;;
21114;SDS011;10715;48.546;9.896;2024-03-23T07:49:27;1.30;;;0.90;;
21114;SDS011;10715;48.546;9.896;2024-03-23T07:51:53;1.57;;;0.90;;
21114;SDS011;10715;48.546;9.896;2024-03-23T07:54:18;1.70;;;0.53;;
21114;SDS011;10715;48.546;9.896;2024-03-23T07:56:44;0.97;;;0.87;;
21114;SDS011;10715;48.546;9.896;2024-03-23T07:59:10;0.90;;;0.40;;
21114;SDS011;10715;48.546;9.896;2024-03-23T08:01:36;0.80;;;0.40;;
21114;SDS011;10715;48.546;9.896;2024-03-23T08:04:01;5.43;;;1.47;;
21114;SDS011;10715;48.546;9.896;2024-03-23T08:06:28;2.17;;;0.50;;
21114;SDS011;10715;48.546;9.896;2024-03-23T08:08:54;0.80;;;0.40;;
21114;SDS011;10715;48.546;9.896;2024-03-23T08:11:28;0.60;;;0.30;;
21114;SDS011;10715;48.546;9.896;2024-03-23T08:13:55;0.80;;;0.40;;
21114;SDS011;10715;48.546;9.896;2024-03-23T08:16:21;0.50;;;0.30;;
21114;SDS011;10715;48.546;9.896;2024-03-23T08:18:47;0.70;;;0.30;;
21114;SDS011;10715;48.546;9.896;2024-03-23T08:21:13;1.07;;;0.53;;
21114;SDS011;10715;48.546;9.896;2024-03-23T08:23:39;0.60;;;0.30;;
21114;SDS011;10715;48.546;9.896;2024-03-23T08:26:06;0.70;;;0.30;;
21114;SDS011;10715;48.546;9.896;2024-03-23T08:28:33;0.60;;;0.30;;
21114;SDS011;10715;48.546;9.896;2024-03-23T08:31:03;0.50;;;0.30;;
21114;SDS011;10715;48.546;9.896;2024-03-23T08:33:33;0.50;;;0.27;;
21114;SDS011;10715;48.546;9.896;2024-03-23T08:36:00;0.60;;;0.30;;
21114;SDS011;10715;48.546;9.896;2024-03-23T08:38:30;0.63;;;0.63;;
21114;SDS011;10715;48.546;9.896;2024-03-23T08:41:00;0.50;;;0.20;;
21114;SDS011;10715;48.546;9.896;2024-03-23T08:43:31;0.40;;;0.20;;
21114;SDS011;10715;48.546;9.896;2024-03-23T08:46:10;0.80;;;0.30;;
21114;SDS011;10715;48.546;9.896;2024-03-23T08:48:39;0.60;;;0.30;;
21114;SDS011;10715;48.546;9.896;2024-03-23T08:51:09;0.60;;;0.30;;
21114;SDS011;10715;48.546;9.896;2024-03-23T08:53:35;0.80;;;0.40;;
21114;SDS011;10715;48.546;9.896;2024-03-23T08:56:02;0.50;;;0.20;;
21114;SDS011;10715;48.546;9.896;2024-03-23T08:58:30;0.43;;;0.20;;
21114;SDS011;10715;48.546;9.896;2024-03-23T09:00:57;42.27;;;2.50;;
21114;SDS011;10715;48.546;9.896;2024-03-23T09:03:32;0.60;;;0.20;;
21114;SDS011;10715;48.546;9.896;2024-03-23T09:05:58;0.50;;;0.20;;
21114;SDS011;10715;48.546;9.896;2024-03-23T09:08:24;0.60;;;0.30;;
21114;SDS011;10715;48.546;9.896;2024-03-23T09:10:50;0.50;;;0.30;;
21114;SDS011;10715;48.546;9.896;2024-03-23T09:13:16;0.40;;;0.20;;
21114;SDS011;10715;48.546;9.896;2024-03-23T09:15:46;0.90;;;0.30;;
21114;SDS011;10715;48.546;9.896;2024-03-23T09:18:15;0.60;;;0.40;;
21114;SDS011;10715;48.546;9.896;2024-03-23T09:20:41;1.13;;;0.40;;
21114;SDS011;10715;48.546;9.896;2024-03-23T09:23:07;0.70;;;0.50;;
21114;SDS011;10715;48.546;9.896;2024-03-23T09:25:36;1.07;;;1.07;;
21114;SDS011;10715;48.546;9.896;2024-03-23T09:28:05;1.07;;;0.40;;
21114;SDS011;10715;48.546;9.896;2024-03-23T09:30:33;0.90;;;0.40;;
21114;SDS011;10715;48.546;9.896;2024-03-23T09:32:59;3.23;;;0.50;;
21114;SDS011;10715;48.546;9.896;2024-03-23T09:35:26;0.90;;;0.50;;
21114;SDS011;10715;48.546;9.896;2024-03-23T09:37:52;1.00;;;0.60;;
21114;SDS011;10715;48.546;9.896;2024-03-23T09:40:17;0.70;;;0.40;;
21114;SDS011;10715;48.546;9.896;2024-03-23T09:42:43;0.87;;;0.50;;
21114;SDS011;10715;48.546;9.896;2024-03-23T09:45:38;1.80;;;0.70;;
21114;SDS011;10715;48.546;9.896;2024-03-23T09:48:04;0.73;;;0.50;;
21114;SDS011;10715;48.546;9.896;2024-03-23T09:50:30;0.80;;;0.40;;
21114;SDS011;10715;48.546;9.896;2024-03-23T09:52:56;4.20;;;0.60;;
21114;SDS011;10715;48.546;9.896;2024-03-23T09:55:22;0.97;;;0.50;;
21114;SDS011;10715;48.546;9.896;2024-03-23T09:57:49;1.10;;;0.50;;
21114;SDS011;10715;48.546;9.896;2024-03-23T10:00:15;2.87;;;0.40;;
21114;SDS011;10715;48.546;9.896;2024-03-23T10:02:41;1.00;;;0.70;;
21114;SDS011;10715;48.546;9.896;2024-03-23T10:05:22;2.33;;;0.70;;
21114;SDS011;10715;48.546;9.896;2024-03-23T10:07:51;1.10;;;0.90;;
21114;SDS011;10715;48.546;9.896;2024-03-23T10:10:17;6.23;;;0.93;;
21114;SDS011;10715;48.546;9.896;2024-03-23T10:12:44;2.90;;;0.60;;
21114;SDS011;10715;48.546;9.896;2024-03-23T10:17:49;1.60;;;0.80;;
21114;SDS011;10715;48.546;9.896;2024-03-23T10:20:21;4.30;;;1.60;;
21114;SDS011;10715;48.546;9.896;2024-03-23T10:22:48;3.23;;;1.13;;
21114;SDS011;10715;48.546;9.896;2024-03-23T10:25:16;2.27;;;1.60;;
21114;SDS011;10715;48.546;9.896;2024-03-23T10:27:57;1.60;;;1.07;;
21114;SDS011;10715;48.546;9.896;2024-03-23T10:30:24;3.33;;;1.27;;
21114;SDS011;10715;48.546;9.896;2024-03-23T10:32:57;1.17;;;0.70;;
21114;SDS011;10715;48.546;9.896;2024-03-23T10:35:36;1.50;;;1.20;;
21114;SDS011;10715;48.546;9.896;2024-03-23T10:38:04;1.33;;;1.23;;
21114;SDS011;10715;48.546;9.896;2024-03-23T10:40:33;1.47;;;1.20;;
21114;SDS011;10715;48.546;9.896;2024-03-23T10:43:00;1.40;;;1.30;;
21114;SDS011;10715;48.546;9.896;2024-03-23T10:45:25;1.43;;;0.87;;
21114;SDS011;10715;48.546;9.896;2024-03-23T10:47:51;6.63;;;1.73;;
21114;SDS011;10715;48.546;9.896;2024-03-23T10:50:17;3.17;;;1.80;;
21114;SDS011;10715;48.546;9.896;2024-03-23T10:52:45;3.97;;;1.17;;
21114;SDS011;10715;48.546;9.896;2024-03-23T10:55:13;1.30;;;1.00;;
21114;SDS011;10715;48.546;9.896;2024-03-23T10:57:49;2.80;;;1.00;;
21114;SDS011;10715;48.546;9.896;2024-03-23T11:00:17;3.93;;;2.00;;
21114;SDS011;10715;48.546;9.896;2024-03-23T11:02:43;2.50;;;1.23;;
21114;SDS011;10715;48.546;9.896;2024-03-23T11:07:50;2.10;;;1.60;;
21114;SDS011;10715;48.546;9.896;2024-03-23T11:10:26;2.77;;;1.30;;
21114;SDS011;10715;48.546;9.896;2024-03-23T11:12:54;5.20;;;1.60;;
21114;SDS011;10715;48.546;9.896;2024-03-23T11:15:23;5.83;;;2.57;;
21114;SDS011;10715;48.546;9.896;2024-03-23T11:18:07;2.40;;;1.23;;
21114;SDS011;10715;48.546;9.896;2024-03-23T11:20:37;4.20;;;2.63;;
21114;SDS011;10715;48.546;9.896;2024-03-23T11:23:03;1.40;;;1.30;;
21114;SDS011;10715;48.546;9.896;2024-03-23T11:25:29;11.43;;;1.60;;
21114;SDS011;10715;48.546;9.896;2024-03-23T11:27:56;2.03;;;1.53;;
21114;SDS011;10715;48.546;9.896;2024-03-23T11:30:23;3.03;;;1.40;;
21114;SDS011;10715;48.546;9.896;2024-03-23T11:32:51;4.23;;;1.07;;
21114;SDS011;10715;48.546;9.896;2024-03-23T11:40:29;1.20;;;1.00;;
21114;SDS011;10715;48.546;9.896;2024-03-23T11:43:00;12.20;;;1.70;;
21114;SDS011;10715;48.546;9.896;2024-03-23T11:45:33;2.50;;;0.97;;
21114;SDS011;10715;48.546;9.896;2024-03-23T11:48:18;2.00;;;1.50;;
21114;SDS011;10715;48.546;9.896;2024-03-23T11:50:50;7.40;;;2.27;;
21114;SDS011;10715;48.546;9.896;2024-03-23T11:53:21;3.50;;;2.17;;
21114;SDS011;10715;48.546;9.896;2024-03-23T11:55:51;1.80;;;1.40;;
21114;SDS011;10715;48.546;9.896;2024-03-23T11:58:22;4.90;;;1.37;;
21114;SDS011;10715;48.546;9.896;2024-03-23T12:00:58;1.83;;;1.00;;
21114;SDS011;10715;48.546;9.896;2024-03-23T12:03:27;0.80;;;0.50;;
21114;SDS011;10715;48.546;9.896;2024-03-23T12:05:54;1.23;;;0.77;;
21114;SDS011;10715;48.546;9.896;2024-03-23T12:08:24;3.77;;;0.70;;
21114;SDS011;10715;48.546;9.896;2024-03-23T12:11:11;1.20;;;0.40;;
21114;SDS011;10715;48.546;9.896;2024-03-23T12:13:39;0.87;;;0.40;;
21114;SDS011;10715;48.546;9.896;2024-03-23T12:18:40;1.17;;;0.70;;
21114;SDS011;10715;48.546;9.896;2024-03-23T12:21:07;1.10;;;0.80;;
21114;SDS011;10715;48.546;9.896;2024-03-23T12:23:33;1.13;;;0.47;;
21114;SDS011;10715;48.546;9.896;2024-03-23T12:25:59;1.90;;;0.60;;
21114;SDS011;10715;48.546;9.896;2024-03-23T12:28:25;0.80;;;0.50;;
21114;SDS011;10715;48.546;9.896;2024-03-23T12:30:51;1.03;;;0.60;;
21114;SDS011;10715;48.546;9.896;2024-03-23T12:33:20;1.07;;;0.60;;
21114;SDS011;10715;48.546;9.896;2024-03-23T12:35:46;2.07;;;0.60;;
21114;SDS011;10715;48.546;9.896;2024-03-23T12:38:12;1.73;;;0.40;;
21114;SDS011;10715;48.546;9.896;2024-03-23T12:40:38;1.70;;;0.80;;
21114;SDS011;10715;48.546;9.896;2024-03-23T12:43:04;3.33;;;0.97;;
21114;SDS011;10715;48.546;9.896;2024-03-23T12:45:29;4.70;;;0.60;;
21114;SDS011;10715;48.546;9.896;2024-03-23T12:47:55;3.60;;;0.60;;
21114;SDS011;10715;48.546;9.896;2024-03-23T12:50:21;1.43;;;0.80;;
21114;SDS011;10715;48.546;9.896;2024-03-23T12:52:46;3.83;;;0.70;;
21114;SDS011;10715;48.546;9.896;2024-03-23T12:55:12;2.50;;;0.73;;
21114;SDS011;10715;48.546;9.896;2024-03-23T12:57:38;3.37;;;0.50;;
21114;SDS011;10715;48.546;9.896;2024-03-23T13:00:05;2.20;;;0.70;;
21114;SDS011;10715;48.546;9.896;2024-03-23T13:02:31;1.30;;;0.50;;
21114;SDS011;10715;48.546;9.896;2024-03-23T13:04:59;3.23;;;0.83;;
21114;SDS011;10715;48.546;9.896;2024-03-23T13:07:25;2.60;;;0.70;;
21114;SDS011;10715;48.546;9.896;2024-03-23T13:09:51;3.77;;;0.67;;
21114;SDS011;10715;48.546;9.896;2024-03-23T13:12:20;3.13;;;1.13;;
21114;SDS011;10715;48.546;9.896;2024-03-23T13:14:46;2.83;;;0.60;;
21114;SDS011;10715;48.546;9.896;2024-03-23T13:17:12;3.20;;;1.10;;
21114;SDS011;10715;48.546;9.896;2024-03-23T13:19:38;1.47;;;1.20;;
21114;SDS011;10715;48.546;9.896;2024-03-23T13:22:04;1.20;;;0.80;;
21114;SDS011;10715;48.546;9.896;2024-03-23T13:24:30;3.13;;;0.80;;
21114;SDS011;10715;48.546;9.896;2024-03-23T13:26:56;2.90;;;0.60;;
21114;SDS011;10715;48.546;9.896;2024-03-23T13:29:23;1.10;;;0.70;;
21114;SDS011;10715;48.546;9.896;2024-03-23T13:31:49;9.17;;;3.53;;
21114;SDS011;10715;48.546;9.896;2024-03-23T13:34:16;2.10;;;1.10;;
21114;SDS011;10715;48.546;9.896;2024-03-23T13:36:46;5.87;;;1.23;;
21114;SDS011;10715;48.546;9.896;2024-03-23T13:39:12;1.00;;;0.90;;
21114;SDS011;10715;48.546;9.896;2024-03-23T13:41:40;2.23;;;1.10;;
21114;SDS011;10715;48.546;9.896;2024-03-23T13:44:07;1.57;;;1.30;;
21114;SDS011;10715;48.546;9.896;2024-03-23T13:46:37;3.30;;;1.43;;
21114;SDS011;10715;48.546;9.896;2024-03-23T13:51:52;5.13;;;1.60;;
21114;SDS011;10715;48.546;9.896;2024-03-23T13:54:18;4.50;;;1.07;;
21114;SDS011;10715;48.546;9.896;2024-03-23T13:56:44;3.17;;;0.80;;
21114;SDS011;10715;48.546;9.896;2024-03-23T13:59:10;2.23;;;1.07;;
21114;SDS011;10715;48.546;9.896;2024-03-23T14:01:35;1.77;;;0.90;;
21114;SDS011;10715;48.546;9.896;2024-03-23T14:04:01;5.70;;;0.90;;
21114;SDS011;10715;48.546;9.896;2024-03-23T14:06:27;3.23;;;1.70;;
21114;SDS011;10715;48.546;9.896;2024-03-23T14:08:53;3.57;;;0.97;;
21114;SDS011;10715;48.546;9.896;2024-03-23T14:11:18;2.03;;;1.00;;
21114;SDS011;10715;48.546;9.896;2024-03-23T14:13:44;2.80;;;0.70;;
21114;SDS011;10715;48.546;9.896;2024-03-23T14:16:10;1.10;;;0.80;;
21114;SDS011;10715;48.546;9.896;2024-03-23T14:18:36;2.20;;;0.70;;
21114;SDS011;10715;48.546;9.896;2024-03-23T14:21:02;1.20;;;0.50;;
21114;SDS011;10715;48.546;9.896;2024-03-23T14:23:28;1.50;;;0.60;;
21114;SDS011;10715;48.546;9.896;2024-03-23T14:25:57;12.43;;;0.70;;
21114;SDS011;10715;48.546;9.896;2024-03-23T14:28:23;0.80;;;0.50;;
21114;SDS011;10715;48.546;9.896;2024-03-23T14:30:50;1.73;;;0.50;;
21114;SDS011;10715;48.546;9.896;2024-03-23T14:33:16;3.53;;;0.60;;
21114;SDS011;10715;48.546;9.896;2024-03-23T14:35:43;1.20;;;0.60;;
21114;SDS011;10715;48.546;9.896;2024-03-23T14:38:29;2.40;;;0.70;;
21114;SDS011;10715;48.546;9.896;2024-03-23T14:40:57;11.63;;;0.80;;
21114;SDS011;10715;48.546;9.896;2024-03-23T14:43:28;0.90;;;0.50;;
21114;SDS011;10715;48.546;9.896;2024-03-23T14:48:39;2.53;;;0.60;;
21114;SDS011;10715;48.546;9.896;2024-03-23T14:51:06;1.33;;;0.40;;
21114;SDS011;10715;48.546;9.896;2024-03-23T14:53:33;1.73;;;0.60;;
21114;SDS011;10715;48.546;9.896;2024-03-23T14:56:00;1.00;;;0.50;;
21114;SDS011;10715;48.546;9.896;2024-03-23T14:58:27;0.90;;;0.50;;
21114;SDS011;10715;48.546;9.896;2024-03-23T15:00:59;1.97;;;0.40;;
21114;SDS011;10715;48.546;9.896;2024-03-23T15:03:28;0.80;;;0.40;;
21114;SDS011;10715;48.546;9.896;2024-03-23T15:05:55;1.90;;;0.40;;
21114;SDS011;10715;48.546;9.896;2024-03-23T15:08:21;2.80;;;0.60;;
21114;SDS011;10715;48.546;9.896;2024-03-23T15:10:47;1.57;;;0.60;;
21114;SDS011;10715;48.546;9.896;2024-03-23T15:13:12;1.10;;;0.50;;
21114;SDS011;10715;48.546;9.896;2024-03-23T15:15:40;3.90;;;0.43;;
21114;SDS011;10715;48.546;9.896;2024-03-23T15:18:09;0.60;;;0.40;;
21114;SDS011;10715;48.546;9.896;2024-03-23T15:20:35;0.93;;;0.40;;
21114;SDS011;10715;48.546;9.896;2024-03-23T15:23:02;0.93;;;0.40;;
21114;SDS011;10715;48.546;9.896;2024-03-23T15:25:28;1.20;;;0.50;;
21114;SDS011;10715;48.546;9.896;2024-03-23T15:27:54;0.60;;;0.30;;
21114;SDS011;10715;48.546;9.896;2024-03-23T15:30:20;1.00;;;0.40;;
21114;SDS011;10715;48.546;9.896;2024-03-23T15:32:45;0.80;;;0.40;;
21114;SDS011;10715;48.546;9.896;2024-03-23T15:35:12;0.70;;;0.40;;
21114;SDS011;10715;48.546;9.896;2024-03-23T15:37:38;1.83;;;0.40;;
21114;SDS011;10715;48.546;9.896;2024-03-23T15:40:04;0.50;;;0.30;;
21114;SDS011;10715;48.546;9.896;2024-03-23T15:42:31;0.67;;;0.33;;
21114;SDS011;10715;48.546;9.896;2024-03-23T15:44:57;1.10;;;0.40;;
21114;SDS011;10715;48.546;9.896;2024-03-23T15:47:23;4.50;;;0.57;;
21114;SDS011;10715;48.546;9.896;2024-03-23T15:49:49;1.93;;;0.60;;
21114;SDS011;10715;48.546;9.896;2024-03-23T15:52:15;1.00;;;0.50;;
21114;SDS011;10715;48.546;9.896;2024-03-23T15:54:42;4.60;;;0.60;;
21114;SDS011;10715;48.546;9.896;2024-03-23T15:57:08;0.97;;;0.40;;